Time;durP1;ratioP1;P1;durP2;ratioP2;P2;SDS_P1;SDS_P2;PMS_P1;PMS_P2;Temp;Humidity;BMP_temperature;BMP_pressure;BME280_temperature;BME280_humidity;BME280_pressure;Samples;Min_cycle;Max_cycle;Signal;HPM_P1;HPM_P2
2022/09/02 00:03:42;;;;;;;4.13;1.10;;;;;;;-147.53;100.00;57128.34;10301952;28;19965;-78
2022/09/02 00:08:45;;;;;;;2.03;0.90;;;;;;;-147.53;100.00;57128.34;10297597;28;20046;-78
2022/09/02 00:13:47;;;;;;;3.30;1.00;;;;;;;-147.53;100.00;57128.34;10319431;28;20521;-78
2022/09/02 00:18:50;;;;;;;1.98;1.00;;;;;;;-147.53;100.00;57128.34;10297036;28;20049;-79
2022/09/02 00:24:00;;;;;;;3.20;1.13;;;;;;;-147.53;100.00;57128.34;10316818;28;20046;-79
2022/09/02 00:29:05;;;;;;;3.50;1.00;;;;;;;-147.53;100.00;57128.34;10294822;28;20042;-78
2022/09/02 00:34:10;;;;;;;2.47;0.93;;;;;;;-147.53;100.00;57128.34;10288624;28;20074;-78
2022/09/02 00:39:14;;;;;;;2.42;1.10;;;;;;;-147.53;100.00;57128.34;10291135;28;20409;-79
2022/09/02 00:44:17;;;;;;;4.40;1.13;;;;;;;-147.53;100.00;57128.34;10299533;28;20570;-77
2022/09/02 00:49:32;;;;;;;2.45;1.10;;;;;;;-147.53;100.00;57128.34;10294035;28;20049;-79
2022/09/02 00:54:44;;;;;;;2.08;1.10;;;;;;;-147.53;100.00;57128.34;10293519;28;20047;-79
2022/09/02 00:59:55;;;;;;;2.28;1.00;;;;;;;-147.53;100.00;57128.34;10301278;28;20042;-79
2022/09/02 01:04:58;;;;;;;2.03;0.90;;;;;;;-147.53;100.00;57128.34;10311263;28;20057;-77
2022/09/02 01:10:03;;;;;;;5.07;1.23;;;;;;;-147.53;100.00;57128.34;10306419;28;20053;-78
2022/09/02 01:15:09;;;;;;;4.40;1.10;;;;;;;-147.53;100.00;57128.34;10315372;28;20058;-78
2022/09/02 01:20:14;;;;;;;1.92;1.00;;;;;;;-147.53;100.00;57128.34;10301447;28;20482;-78
2022/09/02 01:25:29;;;;;;;2.28;1.10;;;;;;;-147.53;100.00;57128.34;10305001;28;20178;-78
2022/09/02 01:30:36;;;;;;;3.00;1.30;;;;;;;-147.53;100.00;57128.34;10312046;28;20050;-78
2022/09/02 01:35:38;;;;;;;3.25;1.20;;;;;;;-147.53;100.00;57128.34;10314777;28;20089;-78
2022/09/02 01:40:41;;;;;;;5.13;1.73;;;;;;;-147.53;100.00;57128.34;10297894;28;20078;-78
2022/09/02 01:45:54;;;;;;;2.65;1.40;;;;;;;-147.53;100.00;57128.34;10303029;28;21395;-78
2022/09/02 01:51:03;;;;;;;3.67;1.50;;;;;;;-147.53;100.00;57128.34;10299039;28;20042;-79
2022/09/02 01:56:05;;;;;;;1.80;1.10;;;;;;;-147.53;100.00;57128.34;10312190;28;20054;-78
2022/09/02 02:01:08;;;;;;;3.83;1.40;;;;;;;-147.53;100.00;57128.34;10313834;28;20414;-78
2022/09/02 02:06:13;;;;;;;2.08;1.20;;;;;;;-147.53;100.00;57128.34;10306819;28;20474;-79
2022/09/02 02:11:21;;;;;;;2.03;1.25;;;;;;;-147.53;100.00;57128.34;10313716;28;20439;-80
2022/09/02 02:16:33;;;;;;;3.97;1.38;;;;;;;-147.53;100.00;57128.34;10331865;28;20038;-78
2022/09/02 02:21:34;;;;;;;7.10;1.33;;;;;;;-147.53;100.00;57128.34;10300891;28;20038;-79
2022/09/02 02:26:36;;;;;;;6.45;1.50;;;;;;;-147.53;100.00;57128.34;10297885;28;20517;-78
2022/09/02 02:31:40;;;;;;;6.45;1.40;;;;;;;-147.53;100.00;57128.34;10311248;28;20050;-78
2022/09/02 02:36:44;;;;;;;3.30;1.55;;;;;;;-147.53;100.00;57128.34;10308705;28;20049;-78
2022/09/02 02:41:48;;;;;;;3.97;1.40;;;;;;;-147.53;100.00;57128.34;10321379;28;20049;-80
2022/09/02 02:46:53;;;;;;;2.03;1.05;;;;;;;-147.53;100.00;57128.34;10319238;28;20051;-78
2022/09/02 02:51:59;;;;;;;4.03;1.38;;;;;;;-147.53;100.00;57128.34;10298013;28;20516;-78
2022/09/02 02:57:00;;;;;;;3.05;1.45;;;;;;;-147.53;100.00;57128.34;10289390;28;20047;-77
2022/09/02 03:02:06;;;;;;;3.83;1.30;;;;;;;-147.53;100.00;57128.34;10303652;28;20054;-77
2022/09/02 03:07:09;;;;;;;5.13;1.48;;;;;;;-147.53;100.00;57128.34;10295349;28;20141;-78
2022/09/02 03:12:10;;;;;;;3.88;1.55;;;;;;;-147.53;100.00;57128.34;10290431;28;20038;-78
2022/09/02 03:17:12;;;;;;;3.22;1.50;;;;;;;-147.53;100.00;57128.34;10299033;28;20045;-78
2022/09/02 03:22:14;;;;;;;6.63;1.40;;;;;;;-147.53;100.00;57128.34;10281228;28;21086;-79
2022/09/02 03:27:16;;;;;;;4.32;1.60;;;;;;;-147.53;100.00;57128.34;10292285;28;20441;-77
2022/09/02 03:32:18;;;;;;;4.53;1.65;;;;;;;-147.53;100.00;57128.34;10318166;28;20038;-78
2022/09/02 03:37:20;;;;;;;6.50;1.80;;;;;;;-147.53;100.00;57128.34;10285598;28;20502;-77
2022/09/02 03:42:30;;;;;;;4.43;1.55;;;;;;;-147.53;100.00;57128.34;10294924;28;20038;-79
2022/09/02 03:47:32;;;;;;;4.45;1.73;;;;;;;-147.53;100.00;57128.34;10296451;28;20414;-78
2022/09/02 03:52:35;;;;;;;2.65;1.33;;;;;;;-147.53;100.00;57128.34;10309766;28;20046;-78
2022/09/02 03:57:38;;;;;;;6.38;1.77;;;;;;;-147.53;100.00;57128.34;10278860;28;20042;-78
2022/09/02 04:02:40;;;;;;;3.72;1.58;;;;;;;-147.53;100.00;57128.34;10295520;28;20042;-78
2022/09/02 04:07:45;;;;;;;3.45;1.58;;;;;;;-147.53;100.00;57128.34;10298252;28;20125;-78
2022/09/02 04:12:49;;;;;;;4.68;2.10;;;;;;;-147.53;100.00;57128.34;10291330;28;20043;-78
2022/09/02 04:17:52;;;;;;;3.35;1.63;;;;;;;-147.53;100.00;57128.34;10298825;28;20042;-78
2022/09/02 04:22:55;;;;;;;3.05;1.58;;;;;;;-147.53;100.00;57128.34;10288259;28;20073;-78
2022/09/02 04:27:58;;;;;;;6.47;1.60;;;;;;;-147.53;100.00;57128.34;10298691;28;20929;-79
2022/09/02 04:33:00;;;;;;;3.80;1.60;;;;;;;-147.53;100.00;57128.34;10323857;28;20789;-77
2022/09/02 04:38:02;;;;;;;3.10;1.50;;;;;;;-147.53;100.00;57128.34;10300794;28;20421;-77
2022/09/02 04:43:05;;;;;;;3.45;1.73;;;;;;;-147.53;100.00;57128.34;10302782;28;20047;-77
2022/09/02 04:48:07;;;;;;;5.07;1.83;;;;;;;-147.53;100.00;57128.34;10315450;28;20038;-77
2022/09/02 04:53:09;;;;;;;6.00;1.77;;;;;;;-147.53;100.00;57128.34;10301104;28;20125;-77
2022/09/02 04:58:16;;;;;;;7.10;2.10;;;;;;;-147.53;100.00;57128.34;10308006;28;20054;-78
2022/09/02 05:03:24;;;;;;;9.25;2.30;;;;;;;-147.53;100.00;57128.34;10304404;28;20089;-78
2022/09/02 05:08:26;;;;;;;6.88;2.33;;;;;;;-147.53;100.00;57128.34;10320083;28;20475;-77
2022/09/02 05:13:28;;;;;;;6.18;2.50;;;;;;;-147.53;100.00;57128.34;10304498;28;20687;-77
2022/09/02 05:18:32;;;;;;;5.00;2.35;;;;;;;-147.53;100.00;57128.34;10300228;28;20038;-77
2022/09/02 05:23:36;;;;;;;4.65;1.92;;;;;;;-147.53;100.00;57128.34;10307559;28;20050;-77
2022/09/02 05:28:39;;;;;;;5.72;1.67;;;;;;;-147.53;100.00;57128.34;10298873;28;20047;-77
2022/09/02 05:33:43;;;;;;;4.00;1.85;;;;;;;-147.53;100.00;57128.34;10298828;28;20466;-77
2022/09/02 05:38:51;;;;;;;3.28;1.90;;;;;;;-147.53;100.00;57128.34;10277069;28;20066;-77
2022/09/02 05:43:56;;;;;;;7.10;2.10;;;;;;;-147.53;100.00;57128.34;10312658;28;20042;-76
2022/09/02 05:49:06;;;;;;;6.53;2.10;;;;;;;-147.53;100.00;57128.34;10312982;28;20506;-76
2022/09/02 05:54:36;;;;;;;5.07;2.10;;;;;;;-147.53;100.00;57128.34;10284714;28;20043;-76
2022/09/02 05:59:43;;;;;;;5.57;2.20;;;;;;;-147.53;100.00;57128.34;10317686;28;20043;-77
2022/09/02 06:04:50;;;;;;;6.28;2.22;;;;;;;-147.53;100.00;57128.34;10294774;28;20047;-79
2022/09/02 06:09:54;;;;;;;5.28;2.53;;;;;;;-147.53;100.00;57128.34;10297641;28;20050;-77
2022/09/02 06:14:59;;;;;;;5.47;2.78;;;;;;;-147.53;100.00;57128.34;10318218;28;20281;-76
2022/09/02 06:20:03;;;;;;;9.88;2.60;;;;;;;-147.53;100.00;57128.34;10295440;28;20038;-78
2022/09/02 06:25:06;;;;;;;5.82;2.58;;;;;;;-147.53;100.00;57128.34;10284951;28;20506;-78
2022/09/02 06:30:09;;;;;;;6.22;2.72;;;;;;;-147.53;100.00;57128.34;10304460;28;20034;-76
2022/09/02 06:35:12;;;;;;;4.95;2.58;;;;;;;-147.53;100.00;57128.34;10310717;28;20051;-77
2022/09/02 06:40:15;;;;;;;4.57;2.50;;;;;;;-147.53;100.00;57128.34;10312944;28;20061;-77
2022/09/02 06:45:23;;;;;;;3.70;2.20;;;;;;;-147.53;100.00;57128.34;10280950;28;20520;-77
2022/09/02 06:50:25;;;;;;;4.95;2.30;;;;;;;-147.53;100.00;57128.34;10294440;28;20054;-76
2022/09/02 06:55:29;;;;;;;8.07;2.53;;;;;;;-147.53;100.00;57128.34;10291851;28;20820;-76
2022/09/02 07:00:31;;;;;;;7.88;2.30;;;;;;;-147.53;100.00;57128.34;10305427;28;20066;-77
2022/09/02 07:05:35;;;;;;;5.28;2.65;;;;;;;-147.53;100.00;57128.34;10299532;28;20498;-77
2022/09/02 07:10:40;;;;;;;9.20;2.30;;;;;;;-147.53;100.00;57128.34;10295487;28;20149;-78
2022/09/02 07:15:43;;;;;;;5.93;2.40;;;;;;;-147.53;100.00;57128.34;10288146;28;20515;-78
2022/09/02 07:20:46;;;;;;;4.88;2.22;;;;;;;-147.53;100.00;57128.34;10328414;28;20096;-79
2022/09/02 07:25:49;;;;;;;5.53;2.35;;;;;;;-147.53;100.00;57128.34;10311331;28;20069;-77
2022/09/02 07:30:54;;;;;;;4.53;2.20;;;;;;;-147.53;100.00;57128.34;10305882;28;20031;-76
2022/09/02 07:36:01;;;;;;;8.60;2.63;;;;;;;-147.53;100.00;57128.34;10314975;28;20105;-78
2022/09/02 07:41:04;;;;;;;6.78;2.30;;;;;;;-147.53;100.00;57128.34;10294466;28;20074;-78
2022/09/02 07:46:07;;;;;;;6.05;2.10;;;;;;;-147.53;100.00;57128.34;10302431;28;20053;-77
2022/09/02 07:51:09;;;;;;;5.45;2.30;;;;;;;-147.53;100.00;57128.34;10294237;28;20047;-78
2022/09/02 07:56:13;;;;;;;4.85;2.20;;;;;;;-147.53;100.00;57128.34;10309183;28;20054;-77
2022/09/02 08:01:16;;;;;;;3.75;2.00;;;;;;;-147.53;100.00;57128.34;10291095;28;20042;-79
2022/09/02 08:06:26;;;;;;;;;;;;;;;-147.53;100.00;57128.34;10326188;28;20395;-78
2022/09/02 08:11:38;;;;;;;4.75;2.00;;;;;;;-147.53;100.00;57128.34;10305931;28;19985;-77
2022/09/02 08:16:40;;;;;;;5.72;2.05;;;;;;;-147.53;100.00;57128.34;10295616;28;20458;-79
2022/09/02 08:21:44;;;;;;;9.60;2.05;;;;;;;-147.53;100.00;57128.34;10299740;28;20050;-78
2022/09/02 08:26:48;;;;;;;6.75;2.45;;;;;;;-147.53;100.00;57128.34;10306206;28;20534;-77
2022/09/02 08:31:49;;;;;;;5.75;2.03;;;;;;;-147.53;100.00;57128.34;10303196;28;20042;-77
2022/09/02 08:36:55;;;;;;;3.97;1.73;;;;;;;-147.53;100.00;57128.34;10297219;28;20448;-79
2022/09/02 08:42:11;;;;;;;3.50;1.65;;;;;;;-147.53;100.00;57128.34;10299402;28;20582;-78
2022/09/02 08:47:18;;;;;;;4.28;1.80;;;;;;;-147.53;100.00;57128.34;10287918;28;20112;-78
2022/09/02 08:52:32;;;;;;;3.63;1.80;;;;;;;-147.53;100.00;57128.34;10307371;28;20138;-79
2022/09/02 08:57:34;;;;;;;9.68;2.15;;;;;;;-147.53;100.00;57128.34;10293474;28;20043;-78
2022/09/02 09:02:56;;;;;;;7.18;2.25;;;;;;;-147.53;100.00;57128.34;10301716;28;20056;-78
2022/09/02 09:08:03;;;;;;;5.95;2.20;;;;;;;-147.53;100.00;57128.34;10306150;28;20486;-78
2022/09/02 09:13:38;;;;;;;4.50;2.10;;;;;;;-147.53;100.00;57128.34;10307585;28;20046;-78
2022/09/02 09:18:55;;;;;;;6.03;2.05;;;;;;;-147.53;100.00;57128.34;10297752;28;20042;-76
2022/09/02 09:24:01;;;;;;;4.60;2.25;;;;;;;-147.53;100.00;57128.34;10321670;28;20043;-77
2022/09/02 09:29:03;;;;;;;7.75;2.33;;;;;;;-147.53;100.00;57128.34;10301354;28;20043;-76
2022/09/02 09:34:10;;;;;;;5.88;2.38;;;;;;;-147.53;100.00;57128.34;10294007;28;20093;-76
2022/09/02 09:39:30;;;;;;;6.47;2.90;;;;;;;-147.53;100.00;57128.34;10301387;28;20169;-76
2022/09/02 09:44:45;;;;;;;6.15;3.10;;;;;;;-147.53;100.00;57128.34;10298058;28;20048;-76
2022/09/02 09:49:53;;;;;;;7.72;3.47;;;;;;;-147.53;100.00;57128.34;10299626;28;20041;-77
2022/09/02 09:55:13;;;;;;;9.30;3.60;;;;;;;-147.53;100.00;57128.34;10297023;28;20070;-77
2022/09/02 10:00:27;;;;;;;11.18;3.97;;;;;;;-147.53;100.00;57128.34;10302102;28;20082;-77
2022/09/02 10:05:35;;;;;;;8.25;2.70;;;;;;;-147.53;100.00;57128.34;10303820;28;20050;-77
2022/09/02 10:10:37;;;;;;;9.60;3.30;;;;;;;-147.53;100.00;57128.34;10302210;28;20122;-77
2022/09/02 10:15:46;;;;;;;6.35;2.53;;;;;;;-147.53;100.00;57128.34;10302020;28;20048;-76
2022/09/02 10:21:06;;;;;;;;;;;;;;;-147.53;100.00;57128.34;10307274;28;20039;-76
2022/09/02 10:26:35;;;;;;;3.42;1.48;;;;;;;-147.53;100.00;57128.34;10303422;28;19925;-77
2022/09/02 10:31:36;;;;;;;4.03;1.40;;;;;;;-147.53;100.00;57128.34;10304804;28;20130;-78
2022/09/02 10:36:57;;;;;;;5.72;2.10;;;;;;;-147.53;100.00;57128.34;10301373;28;20042;-77
2022/09/02 10:42:14;;;;;;;3.40;1.40;;;;;;;-147.53;100.00;57128.34;10312664;28;20144;-77
2022/09/02 10:47:21;;;;;;;4.22;1.40;;;;;;;-147.53;100.00;57128.34;10303430;28;20050;-76
2022/09/02 10:52:59;;;;;;;5.15;1.70;;;;;;;-147.53;100.00;57128.34;10297507;28;20136;-78
2022/09/02 10:58:12;;;;;;;4.97;1.27;;;;;;;-147.53;100.00;57128.34;10293326;28;20054;-77
2022/09/02 11:03:31;;;;;;;9.52;1.30;;;;;;;-147.53;100.00;57128.34;10313536;28;20096;-77
2022/09/02 11:08:37;;;;;;;5.05;1.42;;;;;;;-147.53;100.00;57128.34;10299977;28;20069;-76
2022/09/02 11:13:38;;;;;;;2.75;1.10;;;;;;;-147.53;100.00;57128.34;10298178;28;20231;-77
2022/09/02 11:18:59;;;;;;;2.28;0.80;;;;;;;-147.53;100.00;57128.34;10296050;28;20046;-77
2022/09/02 11:24:07;;;;;;;4.43;0.90;;;;;;;-147.53;100.00;57128.34;10294384;28;20414;-77
2022/09/02 11:29:16;;;;;;;1.90;0.70;;;;;;;-147.53;100.00;57128.34;10293980;28;20042;-77
2022/09/02 11:34:35;;;;;;;1.33;0.90;;;;;;;-147.53;100.00;57128.34;10288966;28;20046;-77
2022/09/02 11:39:51;;;;;;;2.30;0.90;;;;;;;-147.53;100.00;57128.34;10296535;28;20035;-77
2022/09/02 11:45:40;;;;;;;2.78;0.68;;;;;;;-147.53;100.00;57128.34;10291001;28;20415;-76
2022/09/02 11:51:23;;;;;;;1.63;0.93;;;;;;;-147.53;100.00;57128.34;10300993;28;20034;-76
2022/09/02 11:56:29;;;;;;;3.92;1.08;;;;;;;-147.53;100.00;57128.34;10292372;28;20053;-76
2022/09/02 12:02:06;;;;;;;4.15;1.00;;;;;;;-147.53;100.00;57128.34;10286523;28;20039;-76
2022/09/02 12:07:11;;;;;;;5.35;1.10;;;;;;;-147.53;100.00;57128.34;10285723;28;20214;-76
2022/09/02 12:12:35;;;;;;;3.63;1.00;;;;;;;-147.53;100.00;57128.34;10286033;28;20047;-75
2022/09/02 12:17:48;;;;;;;5.47;0.85;;;;;;;-147.53;100.00;57128.34;10294006;28;20046;-77
2022/09/02 12:22:51;;;;;;;3.00;0.93;;;;;;;-147.53;100.00;57128.34;10268411;28;20070;-77
2022/09/02 12:28:13;;;;;;;3.47;0.85;;;;;;;-147.53;100.00;57128.34;10298964;28;20042;-79
2022/09/02 12:33:35;;;;;;;2.67;0.70;;;;;;;-147.53;100.00;57128.34;10294107;28;20053;-78
2022/09/02 12:38:41;;;;;;;1.85;0.80;;;;;;;-147.53;100.00;57128.34;10294730;28;20034;-76
2022/09/02 12:44:02;;;;;;;2.45;1.23;;;;;;;-147.53;100.00;57128.34;10306011;28;20042;-76
2022/09/02 12:49:08;;;;;;;1.63;0.90;;;;;;;-147.53;100.00;57128.34;10301810;28;20046;-77
2022/09/02 12:54:10;;;;;;;4.57;1.10;;;;;;;-147.53;100.00;57128.34;10303727;28;20038;-78
2022/09/02 12:59:27;;;;;;;2.05;1.00;;;;;;;-147.53;100.00;57128.34;10299776;28;20058;-78
2022/09/02 13:04:47;;;;;;;1.48;1.00;;;;;;;-147.53;100.00;57128.34;10299882;28;20518;-78
2022/09/02 13:10:05;;;;;;;1.85;0.93;;;;;;;-147.53;100.00;57128.34;10323583;28;20053;-81
2022/09/02 13:15:39;;;;;;;4.10;1.02;;;;;;;-147.53;100.00;57128.34;10331681;28;20061;-83
2022/09/02 13:20:58;;;;;;;2.60;1.15;;;;;;;-147.53;100.00;57128.34;10316968;28;20069;-78
2022/09/02 13:26:24;;;;;;;2.67;0.90;;;;;;;-147.53;100.00;57128.34;10295553;28;20058;-78
2022/09/02 13:32:18;;;;;;;1.35;0.80;;;;;;;-147.53;100.00;57128.34;10294684;28;20046;-79
2022/09/02 13:37:30;;;;;;;2.30;1.00;;;;;;;-147.53;100.00;57128.34;10282762;28;20058;-79
2022/09/02 13:42:35;;;;;;;4.65;1.00;;;;;;;-147.53;100.00;57128.34;10302237;28;21159;-79
2022/09/02 13:47:42;;;;;;;1.58;0.70;;;;;;;-147.53;100.00;57128.34;10301508;28;20124;-80
2022/09/02 13:52:48;;;;;;;4.53;0.85;;;;;;;-147.53;100.00;57128.34;10324989;28;20144;-80
2022/09/02 13:58:28;;;;;;;10.23;1.20;;;;;;;-147.53;100.00;57128.34;10300790;28;20042;-79
2022/09/02 14:03:35;;;;;;;4.72;0.93;;;;;;;-147.53;100.00;57128.34;10315989;28;20166;-80
2022/09/02 14:08:45;;;;;;;2.58;0.90;;;;;;;-147.53;100.00;57128.34;10308645;28;20526;-81
2022/09/02 14:13:48;;;;;;;2.05;0.88;;;;;;;-147.53;100.00;57128.34;10307820;28;20577;-79
2022/09/02 14:19:15;;;;;;;4.53;0.88;;;;;;;-147.53;100.00;57128.34;10304666;28;20087;-75
2022/09/02 14:24:36;;;;;;;2.22;1.10;;;;;;;-147.53;100.00;57128.34;10291334;28;20482;-74
2022/09/02 14:29:43;;;;;;;4.10;0.90;;;;;;;-147.53;100.00;57128.34;10293031;28;20742;-73
2022/09/02 14:34:47;;;;;;;2.35;0.82;;;;;;;-147.53;100.00;57128.34;10298282;28;20046;-75
2022/09/02 14:39:58;;;;;;;3.20;0.90;;;;;;;-147.53;100.00;57128.34;10299508;28;20049;-75
2022/09/02 14:45:04;;;;;;;4.15;1.13;;;;;;;-147.53;100.00;57128.34;10291063;28;20042;-78
2022/09/02 14:50:14;;;;;;;3.10;1.00;;;;;;;-147.53;100.00;57128.34;10304470;28;20051;-78
2022/09/02 14:55:38;;;;;;;3.35;1.20;;;;;;;-147.53;100.00;57128.34;10301199;28;20510;-77
2022/09/02 15:00:39;;;;;;;5.10;0.98;;;;;;;-147.53;100.00;57128.34;10298907;28;20043;-77
2022/09/02 15:05:41;;;;;;;6.32;1.23;;;;;;;-147.53;100.00;57128.34;10308377;28;20045;-73
2022/09/02 15:10:43;;;;;;;4.43;0.95;;;;;;;-147.53;100.00;57128.34;10293107;28;20046;-73
2022/09/02 15:15:45;;;;;;;4.95;1.10;;;;;;;-147.53;100.00;57128.34;10302768;28;20057;-74
2022/09/02 15:20:48;;;;;;;2.25;0.80;;;;;;;-147.53;100.00;57128.34;10293479;28;20812;-73
2022/09/02 15:25:49;;;;;;;2.95;1.08;;;;;;;-147.53;100.00;57128.34;10300571;28;20040;-73
2022/09/02 15:30:59;;;;;;;6.63;1.17;;;;;;;-147.53;100.00;57128.34;10291756;28;20039;-72
2022/09/02 15:36:12;;;;;;;4.07;0.90;;;;;;;-147.53;100.00;57128.34;10316061;28;20054;-73
2022/09/02 15:41:19;;;;;;;4.13;0.90;;;;;;;-147.53;100.00;57128.34;10300715;28;20527;-75
2022/09/02 15:46:31;;;;;;;5.43;0.77;;;;;;;-147.53;100.00;57128.34;10295662;28;20047;-76
2022/09/02 15:51:33;;;;;;;2.58;0.80;;;;;;;-147.53;100.00;57128.34;10294264;28;20093;-75
2022/09/02 15:56:38;;;;;;;3.38;1.10;;;;;;;-147.53;100.00;57128.34;10301592;28;20050;-74
2022/09/02 16:01:42;;;;;;;4.03;0.90;;;;;;;-147.53;100.00;57128.34;10297353;28;20046;-75
2022/09/02 16:06:46;;;;;;;6.70;1.10;;;;;;;-147.53;100.00;57128.34;10292700;28;20517;-74
2022/09/02 16:11:51;;;;;;;6.55;0.80;;;;;;;-147.53;100.00;57128.34;10299376;28;20128;-74
2022/09/02 16:16:54;;;;;;;2.35;1.00;;;;;;;-147.53;100.00;57128.34;10296088;28;20046;-74
2022/09/02 16:21:58;;;;;;;1.25;0.85;;;;;;;-147.53;100.00;57128.34;10294718;28;20526;-74
2022/09/02 16:27:00;;;;;;;1.27;0.70;;;;;;;-147.53;100.00;57128.34;10307219;28;20085;-74
2022/09/02 16:32:04;;;;;;;5.90;0.90;;;;;;;-147.53;100.00;57128.34;10297901;28;20045;-75
2022/09/02 16:37:25;;;;;;;1.08;0.88;;;;;;;-147.53;100.00;57128.34;10305905;28;20057;-76
2022/09/02 16:42:27;;;;;;;2.78;1.00;;;;;;;-147.53;100.00;57128.34;10298988;28;20042;-76
2022/09/02 16:47:30;;;;;;;8.45;1.08;;;;;;;-147.53;100.00;57128.34;10308191;28;20117;-74
2022/09/02 16:52:33;;;;;;;2.88;1.00;;;;;;;-147.53;100.00;57128.34;10303578;28;20034;-77
2022/09/02 16:57:35;;;;;;;1.83;0.90;;;;;;;-147.53;100.00;57128.34;10299352;28;20149;-75
2022/09/02 17:02:36;;;;;;;7.72;1.20;;;;;;;-147.53;100.00;57128.34;10306869;28;20426;-74
2022/09/02 17:07:38;;;;;;;5.90;1.00;;;;;;;-147.53;100.00;57128.34;10306092;28;20782;-74
2022/09/02 17:12:40;;;;;;;5.78;1.58;;;;;;;-147.53;100.00;57128.34;10309433;28;20046;-74
2022/09/02 17:17:43;;;;;;;5.20;1.00;;;;;;;-147.53;100.00;57128.34;10313152;28;20058;-76
2022/09/02 17:22:45;;;;;;;4.90;1.20;;;;;;;-147.53;100.00;57128.34;10306368;28;20046;-75
2022/09/02 17:27:47;;;;;;;5.32;1.00;;;;;;;-147.53;100.00;57128.34;10301850;28;20042;-75
2022/09/02 17:32:50;;;;;;;3.30;0.93;;;;;;;-147.53;100.00;57128.34;10301331;28;20049;-77
2022/09/02 17:37:57;;;;;;;1.80;0.90;;;;;;;-147.53;100.00;57128.34;10298950;28;20125;-75
2022/09/02 17:42:58;;;;;;;5.15;1.00;;;;;;;-147.53;100.00;57128.34;10300956;28;20050;-74
2022/09/02 17:48:00;;;;;;;1.45;0.95;;;;;;;-147.53;100.00;57128.34;10297919;28;20536;-74
2022/09/02 17:53:22;;;;;;;4.55;0.95;;;;;;;-147.53;100.00;57128.34;10302932;28;20038;-76
2022/09/02 17:58:28;;;;;;;2.85;1.35;;;;;;;-147.53;100.00;57128.34;10308001;28;20049;-74
2022/09/02 18:03:41;;;;;;;3.85;0.88;;;;;;;-147.53;100.00;57128.34;10292839;28;20077;-77
2022/09/02 18:08:53;;;;;;;6.28;1.17;;;;;;;-147.53;100.00;57128.34;10304346;28;20053;-74
2022/09/02 18:13:54;;;;;;;5.32;1.10;;;;;;;-147.53;100.00;57128.34;10297947;28;20081;-75
2022/09/02 18:19:18;;;;;;;6.28;1.10;;;;;;;-147.53;100.00;57128.34;10292351;28;20053;-76
2022/09/02 18:24:45;;;;;;;3.97;1.10;;;;;;;-147.53;100.00;57128.34;10294701;28;20053;-74
2022/09/02 18:30:08;;;;;;;3.20;1.17;;;;;;;-147.53;100.00;57128.34;10301813;28;20050;-75
2022/09/02 18:35:34;;;;;;;2.00;1.00;;;;;;;-147.53;100.00;57128.34;10292248;28;20050;-76
2022/09/02 18:41:04;;;;;;;5.22;1.38;;;;;;;-147.53;100.00;57128.34;10289938;28;20039;-76
2022/09/02 18:46:08;;;;;;;1.98;0.85;;;;;;;-147.53;100.00;57128.34;10299664;28;20047;-75
2022/09/02 18:51:34;;;;;;;4.10;1.10;;;;;;;-147.53;100.00;57128.34;10292841;28;20531;-75
2022/09/02 18:56:43;;;;;;;3.33;1.10;;;;;;;-147.53;100.00;57128.34;10302570;28;20106;-76
2022/09/02 19:01:47;;;;;;;5.00;1.10;;;;;;;-147.53;100.00;57128.34;10295623;28;20143;-76
2022/09/02 19:06:50;;;;;;;2.08;0.93;;;;;;;-147.53;100.00;57128.34;10304055;28;20128;-74
2022/09/02 19:11:51;;;;;;;3.17;0.80;;;;;;;-147.53;100.00;57128.34;10291533;28;20046;-77
2022/09/02 19:16:54;;;;;;;4.95;0.85;;;;;;;-147.53;100.00;57128.34;10294036;28;20042;-77
2022/09/02 19:22:01;;;;;;;2.75;1.20;;;;;;;-147.53;100.00;57128.34;10271278;28;20034;-75
2022/09/02 19:27:11;;;;;;;2.95;1.00;;;;;;;-147.53;100.00;57128.34;10290457;28;20174;-74
2022/09/02 19:32:13;;;;;;;7.18;1.00;;;;;;;-147.53;100.00;57128.34;10297280;28;21231;-75
2022/09/02 19:37:15;;;;;;;1.73;0.80;;;;;;;-147.53;100.00;57128.34;10290458;28;20057;-76
2022/09/02 19:42:19;;;;;;;4.60;0.93;;;;;;;-147.53;100.00;57128.34;10300095;28;20057;-74
2022/09/02 19:47:25;;;;;;;3.70;0.70;;;;;;;-147.53;100.00;57128.34;10308099;28;20129;-75
2022/09/02 19:52:48;;;;;;;2.65;0.95;;;;;;;-147.53;100.00;57128.34;10291654;28;20042;-75
2022/09/02 19:57:52;;;;;;;4.05;0.90;;;;;;;-147.53;100.00;57128.34;10303376;28;20045;-77
2022/09/02 20:02:54;;;;;;;1.75;0.90;;;;;;;-147.53;100.00;57128.34;10311997;28;20253;-76
2022/09/02 20:07:56;;;;;;;2.70;0.88;;;;;;;-147.53;100.00;57128.34;10294853;28;20045;-75
2022/09/02 20:12:58;;;;;;;1.02;0.73;;;;;;;-147.53;100.00;57128.34;10292442;28;20035;-76
2022/09/02 20:18:09;;;;;;;2.58;1.05;;;;;;;-147.53;100.00;57128.34;10287849;28;20047;-77
2022/09/02 20:23:12;;;;;;;1.35;0.75;;;;;;;-147.53;100.00;57128.34;10310006;28;20058;-75
2022/09/02 20:28:29;;;;;;;4.45;1.17;;;;;;;-147.53;100.00;57128.34;10309323;28;20502;-75
2022/09/02 20:33:54;;;;;;;2.78;1.00;;;;;;;-147.53;100.00;57128.34;10294701;28;20121;-77
2022/09/02 20:39:16;;;;;;;4.18;0.90;;;;;;;-147.53;100.00;57128.34;10293431;28;20054;-76
2022/09/02 20:44:49;;;;;;;4.60;0.95;;;;;;;-147.53;100.00;57128.34;10296084;28;20047;-75
2022/09/02 20:50:30;;;;;;;2.65;0.90;;;;;;;-147.53;100.00;57128.34;10297775;28;20117;-77
2022/09/02 20:55:43;;;;;;;2.90;1.00;;;;;;;-147.53;100.00;57128.34;10299119;28;20038;-77
2022/09/02 21:00:59;;;;;;;2.30;0.90;;;;;;;-147.53;100.00;57128.34;10298051;28;20432;-76
2022/09/02 21:06:03;;;;;;;5.88;1.20;;;;;;;-147.53;100.00;57128.34;10299144;28;20418;-78
2022/09/02 21:11:12;;;;;;;6.32;1.42;;;;;;;-147.53;100.00;57128.34;10296686;28;20049;-77
2022/09/02 21:16:24;;;;;;;5.03;1.08;;;;;;;-147.53;100.00;57128.34;10302256;28;20096;-76
2022/09/02 21:22:03;;;;;;;2.97;1.00;;;;;;;-147.53;100.00;57128.34;10305970;28;20652;-76
2022/09/02 21:27:15;;;;;;;1.88;0.88;;;;;;;-147.53;100.00;57128.34;10276318;28;20042;-77
2022/09/02 21:32:33;;;;;;;2.17;1.13;;;;;;;-147.53;100.00;57128.34;10278670;28;20519;-77
2022/09/02 21:37:38;;;;;;;4.70;1.00;;;;;;;-147.53;100.00;57128.34;10305507;28;20712;-76
2022/09/02 21:42:46;;;;;;;4.57;1.70;;;;;;;-147.53;100.00;57128.34;10306719;28;20042;-76
2022/09/02 21:48:32;;;;;;;3.13;1.15;;;;;;;-147.53;100.00;57128.34;10297221;28;20176;-77
2022/09/02 21:54:04;;;;;;;3.83;1.02;;;;;;;-147.53;100.00;57128.34;10302976;28;20031;-77
2022/09/02 21:59:17;;;;;;;5.32;1.10;;;;;;;-147.53;100.00;57128.34;10296165;28;20422;-77
2022/09/02 22:04:35;;;;;;;2.63;0.90;;;;;;;-147.53;100.00;57128.34;10300292;28;20064;-76
2022/09/02 22:09:37;;;;;;;2.25;1.00;;;;;;;-147.53;100.00;57128.34;10299167;28;20057;-76
2022/09/02 22:14:57;;;;;;;2.60;0.90;;;;;;;-147.53;100.00;57128.34;10304915;28;20039;-77
2022/09/02 22:20:01;;;;;;;3.40;1.02;;;;;;;-147.53;100.00;57128.34;10290818;28;20066;-76
2022/09/02 22:25:04;;;;;;;1.75;0.90;;;;;;;-147.53;100.00;57128.34;10304053;28;20039;-76
2022/09/02 22:30:07;;;;;;;2.00;0.73;;;;;;;-147.53;100.00;57128.34;10309110;28;20554;-76
2022/09/02 22:35:32;;;;;;;5.25;1.00;;;;;;;-147.53;100.00;57128.34;10294525;28;20038;-76
2022/09/02 22:40:41;;;;;;;1.98;0.90;;;;;;;-147.53;100.00;57128.34;10301766;28;20057;-76
2022/09/02 22:57:09;;;;;;;1.53;0.90;;;;;;;-147.53;100.00;57128.34;10303615;28;20664;-76
2022/09/02 23:02:16;;;;;;;1.95;0.90;;;;;;;-147.53;100.00;57128.34;10292680;28;20050;-75
2022/09/02 23:07:18;;;;;;;3.30;0.93;;;;;;;-147.53;100.00;57128.34;10299853;28;20387;-76
2022/09/02 23:12:35;;;;;;;2.10;1.10;;;;;;;-147.53;100.00;57128.34;10294585;28;20844;-76
2022/09/02 23:17:56;;;;;;;2.50;0.80;;;;;;;-147.53;100.00;57128.34;10312478;28;20042;-76
2022/09/02 23:23:24;;;;;;;2.25;1.00;;;;;;;-147.53;100.00;57128.34;10302425;28;20036;-77